Flight Track Log - Related Links

Times and Time Zones

All times are in EDT time to prevent confusion due to time zone crossing. See the N1944E flight status page for this flight to view local times or setup timezone preferences in your user account.

Time Position Orientation Groundspeed Altitude Reporting Facility
EDT Latitude Longitude Course Direction KTS MPH feet Rate Location/Type
Wed 09:45:51 AM 44.5181 -109.0456 238° Southwest 137 158 8,100  Level Salt Lake Center
Wed 09:46:52 AM 44.4875 -109.0767 216° Southwest 138 159 8,800 732 Climbing Salt Lake Center
Wed 09:47:54 AM 44.4678 -109.1206 238° Southwest 136 157 9,600 732 Climbing Salt Lake Center
Wed 09:48:55 AM 44.4464 -109.1650 236° Southwest 136 157 10,300 836 Climbing Salt Lake Center
Wed 09:49:56 AM 44.4208 -109.2186 236° Southwest 137 158 11,300 829 Climbing Salt Lake Center
Wed 09:50:58 AM 44.3989 -109.2622 235° Southwest 138 159 12,000 732 Climbing Salt Lake Center
Wed 09:51:00 AM 44.3461 -109.3355 238° Southwest  Level FlightAware Approximate
Wed 09:51:59 AM 44.3758 -109.3086 235° Southwest 142 163 12,800  Level Salt Lake Center
Wed 09:53:01 AM 44.3506 -109.3528 231° Southwest 145 167 13,600 780 Climbing Salt Lake Center
Wed 09:54:02 AM 44.3247 -109.3986 232° Southwest 149 171 14,400 836 Climbing Salt Lake Center
Wed 09:55:03 AM 44.3039 -109.4472 239° Southwest 147 169 15,300 732 Climbing Salt Lake Center
Wed 09:56:05 AM 44.2775 -109.4975 234° Southwest 145 167 15,900 341 Climbing Salt Lake Center
Wed 09:57:06 AM 44.2517 -109.5514 236° Southwest 163 188 16,000 49 Climbing Salt Lake Center
Wed 09:58:08 AM 44.2128 -109.6161 230° Southwest 186 214 16,000  Level Salt Lake Center
Wed 09:59:09 AM 44.1847 -109.6750 236° Southwest 190 219 16,000  Level Salt Lake Center
Wed 10:00:11 AM 44.1603 -109.7294 238° Southwest 181 208 16,000  Level Salt Lake Center
Wed 10:01:13 AM 44.1300 -109.7942 237° Southwest 179 206 16,000  Level Salt Lake Center
Wed 10:02:14 AM 44.1028 -109.8489 235° Southwest 179 206 16,000  Level Salt Lake Center
Wed 10:03:16 AM 44.0706 -109.9119 235° Southwest 179 206 16,000  Level Salt Lake Center
Wed 10:04:17 AM 44.0406 -109.9639 231° Southwest 179 206 16,000 -537 Level Salt Lake Center
Wed 10:05:19 AM 44.0042 -110.0297 232° Southwest 189 217 14,900 -581 Descending Salt Lake Center
Wed 10:06:21 AM 43.9697 -110.0911 232° Southwest 203 234 14,800 -49 Descending Salt Lake Center
Wed 10:07:22 AM 43.9414 -110.1444 234° Southwest 190 219 14,800 -439 Level Salt Lake Center
Wed 10:08:24 AM 43.9061 -110.2108 234° Southwest 190 219 13,900 -439 Descending Salt Lake Center
Wed 10:09:25 AM 43.8728 -110.2678 231° Southwest 196 226 13,900 -439 Level Salt Lake Center
Wed 10:10:27 AM 43.8336 -110.3308 229° Southwest 195 224 13,000 -435 Descending Salt Lake Center
Wed 10:11:29 AM 43.8017 -110.3850 231° Southwest 193 222 13,000 -145 Level Salt Lake Center
Wed 10:12:31 AM 43.7728 -110.4350 231° Southwest 186 214 12,700 -780 Descending Salt Lake Center
Wed 10:13:32 AM 43.7442 -110.5008 239° Southwest 181 208 11,400 -1,463 Descending Salt Lake Center
Wed 10:14:34 AM 43.7425 -110.5839 268° West 199 229 9,700 -1,403 Descending Salt Lake Center
Wed 10:15:36 AM 43.7392 -110.6606 267° West 208 239 8,500 -581 Descending Salt Lake Center
Wed 10:16:38 AM 43.7064 -110.6894 213° Southwest 168 193 8,500 -390 Level Salt Lake Center
Wed 10:17:39 AM 43.6708 -110.7069 200° South 147 169 7,700 -683 Descending Salt Lake Center
Wed 10:18:41 AM 43.6392 -110.7222 199° South 134 154 7,100 -581 Descending Salt Lake Center
Wed 10:19:43 AM 43.6097 -110.7369 200° South 121 139 6,500 -581 Descending Salt Lake Center

Login

Don't have an account? Register now (free) for customized features, flight alerts, and more!